createdAt,value
2019-06-27T00:00:51.799Z,26.46
2019-06-27T00:03:22.344Z,26.39
2019-06-27T00:05:52.984Z,26.31
2019-06-27T00:08:23.508Z,26.29
2019-06-27T00:10:54.165Z,26.29
2019-06-27T00:13:24.865Z,26.06
2019-06-27T00:15:55.383Z,26.11
2019-06-27T00:18:26.000Z,26.02
2019-06-27T00:21:00.904Z,25.99
2019-06-27T00:23:31.655Z,26.03
2019-06-27T00:26:02.162Z,26.02
2019-06-27T00:28:32.768Z,26.06
2019-06-27T00:31:03.435Z,26.00
2019-06-27T00:33:34.194Z,25.95
2019-06-27T00:36:04.812Z,25.98
2019-06-27T00:38:35.410Z,25.97
2019-06-27T00:41:06.002Z,25.87
2019-06-27T00:43:36.617Z,25.87
2019-06-27T00:46:07.182Z,25.88
2019-06-27T00:48:37.855Z,25.85
2019-06-27T00:51:08.365Z,25.88
2019-06-27T00:53:38.981Z,25.86
2019-06-27T00:56:09.519Z,25.83
2019-06-27T00:58:40.110Z,25.83
2019-06-27T01:01:10.730Z,25.80
2019-06-27T01:03:41.261Z,25.78
2019-06-27T01:06:11.887Z,25.81
2019-06-27T01:08:42.464Z,25.82
2019-06-27T01:11:13.105Z,25.78
2019-06-27T01:13:43.719Z,25.74
2019-06-27T01:16:14.316Z,25.78
2019-06-27T01:18:44.958Z,25.77
2019-06-27T01:21:15.507Z,25.76
2019-06-27T01:23:46.143Z,25.76
2019-06-27T01:26:16.779Z,25.73
2019-06-27T01:28:47.544Z,25.70
2019-06-27T01:31:18.174Z,25.61
2019-06-27T01:33:48.711Z,25.58
2019-06-27T01:36:19.250Z,25.51
2019-06-27T01:38:49.889Z,25.47
2019-06-27T01:41:20.468Z,25.45
2019-06-27T01:43:52.497Z,25.43
2019-06-27T01:46:23.104Z,25.37
2019-06-27T01:48:53.709Z,25.33
2019-06-27T01:51:24.249Z,25.36
2019-06-27T01:53:54.867Z,25.31
2019-06-27T01:56:25.440Z,25.30
2019-06-27T01:58:55.987Z,25.31
2019-06-27T02:01:26.665Z,25.19
2019-06-27T02:03:57.220Z,25.13
2019-06-27T02:06:29.612Z,25.01
2019-06-27T02:09:00.202Z,24.97
2019-06-27T02:11:30.723Z,24.97
2019-06-27T02:14:01.427Z,24.95
2019-06-27T02:16:31.956Z,24.93
2019-06-27T02:19:02.589Z,24.92
2019-06-27T02:21:33.153Z,24.82
2019-06-27T02:24:03.811Z,24.73
2019-06-27T02:26:34.407Z,24.76
2019-06-27T02:29:04.961Z,24.67
2019-06-27T02:31:35.561Z,24.65
2019-06-27T02:34:07.046Z,24.63
2019-06-27T02:36:37.948Z,24.66
2019-06-27T02:39:09.233Z,24.66
2019-06-27T02:41:40.212Z,24.63
2019-06-27T02:44:10.944Z,24.65
2019-06-27T02:46:41.507Z,24.48
2019-06-27T02:49:12.081Z,24.46
2019-06-27T02:51:42.614Z,24.47
2019-06-27T02:54:13.180Z,24.47
2019-06-27T02:56:44.465Z,24.43
2019-06-27T02:59:15.092Z,24.43
2019-06-27T03:01:45.642Z,24.35
2019-06-27T03:04:16.497Z,24.34
2019-06-27T03:06:47.030Z,24.33
2019-06-27T03:09:17.668Z,24.29
2019-06-27T03:11:48.208Z,24.27
2019-06-27T03:14:18.800Z,24.23
2019-06-27T03:16:49.327Z,24.19
2019-06-27T03:19:19.889Z,24.11
2019-06-27T03:21:50.492Z,24.07
2019-06-27T03:24:21.093Z,24.06
2019-06-27T03:26:51.699Z,24.02
2019-06-27T03:29:22.277Z,24.04
2019-06-27T03:31:52.940Z,24.03
2019-06-27T03:34:23.619Z,23.99
2019-06-27T03:36:54.213Z,23.99
2019-06-27T03:39:24.950Z,23.91
2019-06-27T03:41:55.485Z,23.92
2019-06-27T03:44:26.057Z,23.87
2019-06-27T03:46:56.630Z,23.83
2019-06-27T03:49:27.176Z,23.81
2019-06-27T03:51:57.887Z,23.78
2019-06-27T03:54:28.429Z,23.74
2019-06-27T03:56:59.279Z,23.72
2019-06-27T03:59:30.006Z,23.64
2019-06-27T04:02:00.533Z,23.65
2019-06-27T04:04:31.115Z,23.64
2019-06-27T04:07:01.802Z,23.64
2019-06-27T04:09:34.081Z,23.64
2019-06-27T04:12:04.725Z,23.63
2019-06-27T04:14:35.286Z,23.57
2019-06-27T04:17:05.770Z,23.50
2019-06-27T04:19:36.577Z,23.43
2019-06-27T04:22:07.209Z,23.43
2019-06-27T04:24:37.848Z,23.38
2019-06-27T04:27:08.469Z,23.36
2019-06-27T04:29:39.293Z,23.32
2019-06-27T04:32:09.835Z,23.20
2019-06-27T04:34:40.400Z,23.21
2019-06-27T04:37:10.997Z,23.14
2019-06-27T04:39:41.559Z,23.15
2019-06-27T04:42:12.179Z,23.14
2019-06-27T04:44:42.769Z,23.18
2019-06-27T04:47:13.311Z,23.13
2019-06-27T04:49:43.930Z,23.20
2019-06-27T04:52:14.638Z,23.06
2019-06-27T04:54:45.309Z,23.04
2019-06-27T04:57:15.867Z,23.05
2019-06-27T04:59:53.561Z,23.12
2019-06-27T05:02:18.747Z,23.12
2019-06-27T05:04:49.335Z,23.01
2019-06-27T05:07:19.993Z,22.94
2019-06-27T05:09:50.545Z,22.98
2019-06-27T05:12:21.119Z,22.94
2019-06-27T05:14:51.706Z,22.87
2019-06-27T05:17:23.739Z,22.91
2019-06-27T05:19:54.391Z,22.91
2019-06-27T05:22:24.985Z,22.83
2019-06-27T05:24:55.543Z,22.90
2019-06-27T05:27:26.158Z,22.83
2019-06-27T05:30:08.687Z,22.84
2019-06-27T05:32:29.065Z,22.89
2019-06-27T05:34:59.631Z,22.92
2019-06-27T05:37:30.207Z,23.00
2019-06-27T05:40:00.860Z,23.03
2019-06-27T05:42:31.464Z,23.10
2019-06-27T05:45:02.089Z,23.11
2019-06-27T05:47:32.636Z,23.10
2019-06-27T05:50:03.286Z,23.01
2019-06-27T05:52:33.911Z,23.05
2019-06-27T05:55:04.577Z,23.13
2019-06-27T05:57:35.167Z,23.21
2019-06-27T06:00:05.947Z,23.21
2019-06-27T06:02:36.515Z,23.26
2019-06-27T06:05:08.062Z,23.31
2019-06-27T06:07:38.607Z,23.26
2019-06-27T06:10:09.463Z,23.20
2019-06-27T06:12:39.991Z,23.22
2019-06-27T06:15:10.701Z,23.18
2019-06-27T06:17:41.232Z,23.21
2019-06-27T06:20:12.529Z,23.26
2019-06-27T06:22:43.217Z,23.20
2019-06-27T06:25:13.792Z,23.23
2019-06-27T06:27:44.406Z,23.26
2019-06-27T06:30:16.663Z,23.18
2019-06-27T06:32:47.269Z,23.24
2019-06-27T06:35:17.788Z,23.25
2019-06-27T06:37:48.419Z,23.33
2019-06-27T06:40:19.014Z,23.43
2019-06-27T06:42:49.610Z,23.52
2019-06-27T06:45:20.313Z,23.61
2019-06-27T06:47:50.915Z,23.69
2019-06-27T06:50:23.549Z,23.73
2019-06-27T06:52:53.908Z,23.79
2019-06-27T06:55:24.477Z,23.89
2019-06-27T06:57:55.083Z,23.94
2019-06-27T07:00:25.838Z,23.95
2019-06-27T07:02:56.481Z,24.03
2019-06-27T07:05:27.065Z,24.09
2019-06-27T07:07:57.678Z,24.19
2019-06-27T07:10:28.267Z,24.27
2019-06-27T07:12:58.886Z,24.31
2019-06-27T07:15:29.493Z,24.38
2019-06-27T07:18:00.071Z,24.42
2019-06-27T07:20:30.700Z,24.44
2019-06-27T07:23:01.366Z,24.46
2019-06-27T07:25:32.111Z,24.51
2019-06-27T07:28:02.657Z,24.57
2019-06-27T07:30:33.366Z,24.58
2019-06-27T07:33:03.958Z,24.53
2019-06-27T07:35:34.583Z,24.41
2019-06-27T07:38:05.127Z,24.46
2019-06-27T07:40:35.750Z,24.51
2019-06-27T07:43:06.343Z,24.51
2019-06-27T07:45:36.984Z,24.38
2019-06-27T07:48:07.628Z,24.46
2019-06-27T07:50:38.233Z,24.41
2019-06-27T07:53:08.801Z,24.50
2019-06-27T07:55:39.482Z,24.57
2019-06-27T07:58:10.064Z,24.64
2019-06-27T08:00:40.685Z,24.71
2019-06-27T08:03:11.252Z,24.75
2019-06-27T08:05:41.864Z,24.77
2019-06-27T08:08:12.442Z,24.87
2019-06-27T08:10:43.077Z,24.94
2019-06-27T08:13:13.606Z,24.99
2019-06-27T08:15:44.222Z,25.02
2019-06-27T08:18:14.738Z,25.04
2019-06-27T08:20:45.420Z,25.09
2019-06-27T08:23:16.011Z,25.17
2019-06-27T08:25:46.600Z,25.20
2019-06-27T08:28:17.214Z,25.27
2019-06-27T08:30:47.814Z,25.30
2019-06-27T08:33:18.701Z,25.37
2019-06-27T08:35:49.346Z,25.41
2019-06-27T08:38:19.892Z,25.44
2019-06-27T08:40:50.584Z,25.46
2019-06-27T08:43:21.167Z,25.52
2019-06-27T08:45:51.866Z,25.60
2019-06-27T08:48:22.431Z,25.61
2019-06-27T08:50:53.106Z,25.67
2019-06-27T08:53:23.702Z,25.74
2019-06-27T08:55:54.310Z,25.73
2019-06-27T08:58:24.886Z,25.79
2019-06-27T09:00:55.485Z,25.84
2019-06-27T09:03:26.079Z,25.85
2019-06-27T09:05:56.747Z,25.91
2019-06-27T09:08:27.293Z,25.94
2019-06-27T09:10:57.919Z,25.97
2019-06-27T09:13:28.490Z,26.00
2019-06-27T09:15:59.178Z,26.04
2019-06-27T09:18:29.753Z,26.09
2019-06-27T09:21:00.370Z,26.12
2019-06-27T09:23:30.902Z,26.08
2019-06-27T09:26:01.523Z,26.07
2019-06-27T09:28:32.116Z,26.10
2019-06-27T09:31:02.720Z,26.07
2019-06-27T09:33:33.331Z,26.12
2019-06-27T09:36:03.967Z,26.15
2019-06-27T09:38:34.573Z,26.17
2019-06-27T09:41:05.238Z,26.20
2019-06-27T09:43:35.778Z,26.22
2019-06-27T09:46:06.445Z,26.25
2019-06-27T09:48:37.029Z,26.27
2019-06-27T09:51:07.662Z,26.30
2019-06-27T09:53:38.438Z,26.30
2019-06-27T09:56:09.053Z,26.36
2019-06-27T09:58:39.565Z,26.42
2019-06-27T10:01:10.228Z,26.48
2019-06-27T10:03:40.920Z,26.52
2019-06-27T10:06:11.556Z,26.58
2019-06-27T10:08:42.121Z,26.65
2019-06-27T10:11:13.606Z,26.71
2019-06-27T10:13:44.204Z,26.73
2019-06-27T10:16:14.777Z,26.75
2019-06-27T10:18:45.342Z,26.76
2019-06-27T10:21:15.976Z,26.79
2019-06-27T10:23:46.606Z,26.84
2019-06-27T10:26:17.272Z,26.86
2019-06-27T10:28:47.842Z,26.92
2019-06-27T10:31:18.470Z,26.91
2019-06-27T10:33:49.055Z,26.97
2019-06-27T10:36:19.678Z,27.04
2019-06-27T10:38:50.221Z,27.08
2019-06-27T10:41:20.864Z,27.13
2019-06-27T10:43:51.491Z,27.16
2019-06-27T10:46:22.060Z,27.19
2019-06-27T10:48:53.440Z,27.21
2019-06-27T10:51:24.035Z,27.27
2019-06-27T10:53:54.639Z,27.29
2019-06-27T10:56:25.214Z,27.35
2019-06-27T10:58:55.795Z,27.40
2019-06-27T11:01:26.421Z,27.45
2019-06-27T11:03:56.979Z,27.48
2019-06-27T11:06:27.545Z,27.53
2019-06-27T11:08:58.150Z,27.54
2019-06-27T11:11:28.778Z,27.56
2019-06-27T11:13:59.652Z,27.61
2019-06-27T11:16:30.584Z,27.65
2019-06-27T11:19:01.344Z,27.68
2019-06-27T11:21:32.432Z,27.77
2019-06-27T11:24:02.977Z,27.87
2019-06-27T11:26:33.558Z,27.90
2019-06-27T11:29:04.152Z,27.92
2019-06-27T11:31:34.749Z,27.91
2019-06-27T11:34:05.348Z,27.93
2019-06-27T11:36:35.924Z,27.94
2019-06-27T11:39:08.048Z,27.99
2019-06-27T11:41:38.630Z,28.05
2019-06-27T11:44:09.185Z,28.04
2019-06-27T11:46:39.826Z,28.07
2019-06-27T11:49:10.315Z,28.09
2019-06-27T11:51:40.930Z,28.13
2019-06-27T11:54:11.463Z,28.20
2019-06-27T11:56:42.111Z,28.30
2019-06-27T11:59:12.692Z,28.33
2019-06-27T12:01:43.803Z,28.37
2019-06-27T12:04:14.445Z,28.46
2019-06-27T12:06:45.095Z,28.41
2019-06-27T12:09:15.627Z,28.47
2019-06-27T12:11:46.254Z,28.45
2019-06-27T12:14:16.805Z,28.49
2019-06-27T12:16:47.507Z,28.52
2019-06-27T12:19:18.124Z,28.63
2019-06-27T12:21:48.699Z,28.65
2019-06-27T12:24:19.271Z,28.65
2019-06-27T12:26:49.857Z,28.68
2019-06-27T12:29:20.481Z,28.68
2019-06-27T12:31:51.851Z,28.70
2019-06-27T12:34:22.785Z,28.74
2019-06-27T12:36:53.383Z,28.78
2019-06-27T12:39:23.915Z,28.79
2019-06-27T12:41:54.563Z,28.84
2019-06-27T12:44:25.283Z,28.92
2019-06-27T12:46:55.949Z,29.01
2019-06-27T12:49:44.449Z,29.04
2019-06-27T12:51:59.004Z,29.10
2019-06-27T12:54:29.620Z,29.12
2019-06-27T12:57:00.224Z,29.20
2019-06-27T12:59:30.783Z,29.20
2019-06-27T13:02:01.386Z,29.32
2019-06-27T13:04:31.958Z,29.33
2019-06-27T13:07:02.584Z,29.41
2019-06-27T13:09:33.114Z,29.43
2019-06-27T13:12:03.747Z,29.50
2019-06-27T13:14:34.339Z,29.51
2019-06-27T13:17:04.993Z,29.57
2019-06-27T13:19:35.565Z,29.65
2019-06-27T13:22:07.143Z,29.66
2019-06-27T13:24:37.743Z,29.77
2019-06-27T13:27:08.357Z,29.86
2019-06-27T13:29:38.927Z,29.88
2019-06-27T13:32:09.563Z,29.94
2019-06-27T13:34:41.130Z,30.01
2019-06-27T13:37:12.084Z,30.09
2019-06-27T13:39:42.611Z,30.09
2019-06-27T13:42:13.325Z,30.07
2019-06-27T13:44:43.941Z,30.17
2019-06-27T13:47:14.558Z,30.24
2019-06-27T13:49:45.545Z,30.33
2019-06-27T13:52:16.234Z,30.39
2019-06-27T13:54:46.857Z,30.47
2019-06-27T13:57:17.451Z,30.50
2019-06-27T13:59:48.011Z,30.54
2019-06-27T14:02:18.620Z,30.66
2019-06-27T14:04:56.926Z,30.71
2019-06-27T14:07:21.560Z,30.76
2019-06-27T14:09:56.937Z,30.80
2019-06-27T14:12:24.468Z,30.84
2019-06-27T14:14:59.631Z,30.87
2019-06-27T14:17:27.373Z,30.93
2019-06-27T14:19:57.975Z,31.05
2019-06-27T14:22:33.588Z,31.16
2019-06-27T14:25:00.840Z,31.17
2019-06-27T14:27:33.036Z,31.21
2019-06-27T14:30:03.653Z,31.21
2019-06-27T14:32:34.322Z,31.35
2019-06-27T14:35:15.239Z,31.41
2019-06-27T14:37:37.415Z,31.37
2019-06-27T14:40:08.131Z,31.34
2019-06-27T14:42:38.744Z,31.42
2019-06-27T14:45:10.146Z,31.50
2019-06-27T14:47:42.743Z,31.57
2019-06-27T14:50:14.658Z,31.64
2019-06-27T14:52:45.249Z,31.75
2019-06-27T14:55:15.924Z,31.79
2019-06-27T14:57:46.586Z,31.77
2019-06-27T15:00:18.082Z,31.87
2019-06-27T15:02:48.775Z,31.92
2019-06-27T15:05:31.865Z,31.99
2019-06-27T15:07:51.917Z,32.01
2019-06-27T15:10:23.328Z,32.13
2019-06-27T15:12:57.275Z,32.26
2019-06-27T15:15:26.544Z,32.34
2019-06-27T15:17:57.208Z,32.47
2019-06-27T15:20:27.785Z,32.54
2019-06-27T15:22:58.382Z,32.57
2019-06-27T15:25:28.922Z,32.78
2019-06-27T15:27:59.631Z,32.89
2019-06-27T15:30:31.397Z,32.97
2019-06-27T15:33:02.996Z,32.94
2019-06-27T15:35:50.930Z,33.01
2019-06-27T15:38:07.917Z,33.06
2019-06-27T15:40:39.437Z,33.09
2019-06-27T15:43:10.053Z,33.07
2019-06-27T15:45:40.653Z,33.21
2019-06-27T15:48:11.307Z,33.17
2019-06-27T15:50:41.834Z,33.04
2019-06-27T15:53:12.513Z,33.20
2019-06-27T15:55:43.073Z,33.26
2019-06-27T15:58:13.678Z,33.18
2019-06-27T16:00:44.257Z,33.18
2019-06-27T16:03:14.864Z,33.20
2019-06-27T16:05:45.448Z,33.26
2019-06-27T16:08:16.062Z,33.23
2019-06-27T16:10:46.721Z,33.14
2019-06-27T16:13:17.337Z,33.14
2019-06-27T16:15:47.862Z,33.03
2019-06-27T16:18:18.499Z,32.98
2019-06-27T16:20:49.135Z,32.91
2019-06-27T16:23:20.725Z,32.61
2019-06-27T16:25:52.288Z,32.49
2019-06-27T16:28:26.612Z,32.42
2019-06-27T16:30:55.313Z,32.38
2019-06-27T16:33:26.656Z,32.48
2019-06-27T16:35:57.375Z,32.48
2019-06-27T16:38:30.032Z,32.46
2019-06-27T16:41:04.324Z,32.53
2019-06-27T16:43:34.950Z,32.55
2019-06-27T16:46:05.496Z,32.52
2019-06-27T16:48:36.124Z,32.61
2019-06-27T16:51:12.685Z,32.61
2019-06-27T16:53:44.402Z,32.77
2019-06-27T16:56:14.970Z,32.79
2019-06-27T16:58:45.597Z,32.69
2019-06-27T17:01:18.629Z,32.84
2019-06-27T17:03:49.305Z,32.79
2019-06-27T17:06:19.902Z,32.80
2019-06-27T17:08:50.574Z,32.80
2019-06-27T17:11:21.146Z,33.06
2019-06-27T17:13:51.976Z,33.22
2019-06-27T17:16:22.676Z,33.37
2019-06-27T17:18:53.364Z,33.56
2019-06-27T17:21:26.893Z,33.75
2019-06-27T17:23:56.571Z,33.67
2019-06-27T17:26:27.138Z,33.83
2019-06-27T17:29:04.107Z,33.79
2019-06-27T17:31:34.781Z,33.82
2019-06-27T17:34:05.400Z,33.59
2019-06-27T17:36:35.957Z,33.36
2019-06-27T17:39:07.298Z,33.22
2019-06-27T17:41:37.925Z,32.89
2019-06-27T17:44:08.536Z,32.51
2019-06-27T17:46:39.087Z,32.30
2019-06-27T17:49:09.748Z,31.85
2019-06-27T17:51:40.332Z,31.52
2019-06-27T17:54:11.083Z,31.35
2019-06-27T17:56:41.668Z,31.29
2019-06-27T17:59:12.260Z,31.15
2019-06-27T18:01:42.811Z,30.93
2019-06-27T18:04:15.855Z,30.78
2019-06-27T18:06:46.426Z,30.50
2019-06-27T18:09:17.113Z,30.48
2019-06-27T18:11:47.659Z,30.44
2019-06-27T18:14:18.323Z,30.31
2019-06-27T18:16:48.932Z,30.18
2019-06-27T18:19:19.573Z,29.98
2019-06-27T18:21:50.141Z,29.77
2019-06-27T18:24:20.773Z,29.59
2019-06-27T18:26:52.361Z,29.42
2019-06-27T18:29:23.053Z,29.21
2019-06-27T18:31:53.915Z,29.23
2019-06-27T18:34:26.618Z,29.17
2019-06-27T18:36:57.351Z,29.05
2019-06-27T18:39:29.275Z,28.94
2019-06-27T18:41:59.826Z,28.86
2019-06-27T18:44:31.121Z,28.75
2019-06-27T18:47:01.708Z,28.59
2019-06-27T18:49:32.334Z,28.51
2019-06-27T18:52:02.953Z,28.49
2019-06-27T18:54:33.564Z,28.45
2019-06-27T18:57:04.108Z,28.43
2019-06-27T18:59:34.770Z,28.29
2019-06-27T19:02:06.353Z,28.11
2019-06-27T19:04:36.985Z,28.08
2019-06-27T19:07:07.552Z,28.01
2019-06-27T19:09:38.228Z,27.89
2019-06-27T19:12:08.801Z,27.81
2019-06-27T19:14:39.439Z,27.77
2019-06-27T19:17:10.078Z,27.64
2019-06-27T19:19:42.441Z,27.60
2019-06-27T19:22:31.893Z,27.50
2019-06-27T19:25:07.814Z,27.46
2019-06-27T19:27:39.385Z,27.41
2019-06-27T19:30:14.332Z,27.27
2019-06-27T19:32:44.920Z,27.14
2019-06-27T19:35:15.969Z,26.95
2019-06-27T19:38:00.882Z,26.91
2019-06-27T19:40:19.519Z,26.84
2019-06-27T19:42:50.789Z,26.71
2019-06-27T19:45:24.606Z,26.57
2019-06-27T19:47:55.178Z,26.57
2019-06-27T19:50:25.913Z,26.53
2019-06-27T19:52:56.539Z,26.45
2019-06-27T19:55:27.201Z,26.36
2019-06-27T19:57:57.802Z,26.26
2019-06-27T20:00:28.724Z,26.20
2019-06-27T20:02:59.956Z,26.19
2019-06-27T20:05:30.610Z,26.17
2019-06-27T20:08:17.249Z,26.06
2019-06-27T20:10:33.601Z,26.05
2019-06-27T20:13:04.179Z,25.94
2019-06-27T20:15:34.895Z,25.89
2019-06-27T20:18:05.632Z,25.78
2019-06-27T20:20:36.244Z,25.66
2019-06-27T20:23:06.914Z,25.56
2019-06-27T20:25:37.615Z,25.47
2019-06-27T20:28:08.265Z,25.43
2019-06-27T20:30:38.937Z,25.30
2019-06-27T20:33:09.603Z,25.23
2019-06-27T20:35:40.324Z,25.16
2019-06-27T20:38:10.960Z,25.05
2019-06-27T20:40:41.562Z,24.96
2019-06-27T20:43:12.153Z,24.92
2019-06-27T20:45:45.018Z,24.85
2019-06-27T20:48:15.601Z,24.78
2019-06-27T20:50:46.253Z,24.75
2019-06-27T20:53:16.806Z,24.67
2019-06-27T20:55:48.910Z,24.61
2019-06-27T20:58:19.462Z,24.50
2019-06-27T21:00:50.093Z,24.44
2019-06-27T21:03:22.783Z,24.38
2019-06-27T21:05:53.376Z,24.32
2019-06-27T21:08:23.952Z,24.33
2019-06-27T21:10:54.561Z,24.24
2019-06-27T21:13:25.163Z,24.30
2019-06-27T21:15:55.806Z,24.28
2019-06-27T21:18:26.493Z,24.30
2019-06-27T21:20:57.073Z,24.29
2019-06-27T21:23:27.642Z,24.34
2019-06-27T21:25:58.284Z,24.23
2019-06-27T21:28:30.321Z,24.20
2019-06-27T21:31:01.015Z,24.17
2019-06-27T21:33:31.692Z,24.12
2019-06-27T21:36:02.316Z,24.13
2019-06-27T21:38:32.957Z,24.11
2019-06-27T21:41:03.556Z,24.08
2019-06-27T21:43:34.169Z,23.97
2019-06-27T21:46:10.721Z,23.80
2019-06-27T21:48:41.472Z,23.70
2019-06-27T21:51:13.339Z,23.44
2019-06-27T21:53:43.839Z,23.49
2019-06-27T21:56:14.529Z,23.39
2019-06-27T21:58:47.639Z,23.29
2019-06-27T22:01:18.426Z,23.20
2019-06-27T22:03:48.975Z,23.03
2019-06-27T22:06:19.604Z,23.05
2019-06-27T22:08:50.190Z,22.87
2019-06-27T22:11:21.431Z,22.91
2019-06-27T22:13:51.992Z,22.80
2019-06-27T22:16:22.652Z,22.62
2019-06-27T22:18:53.562Z,22.62
2019-06-27T22:21:24.479Z,22.49
2019-06-27T22:23:55.271Z,22.53
2019-06-27T22:26:25.936Z,22.28
2019-06-27T22:28:56.491Z,22.27
2019-06-27T22:31:29.330Z,22.20
2019-06-27T22:33:59.962Z,22.02
2019-06-27T22:36:33.655Z,22.00
2019-06-27T22:39:36.475Z,21.86
2019-06-27T22:42:13.748Z,21.92
2019-06-27T22:45:02.090Z,21.92
2019-06-27T22:47:50.617Z,21.72
2019-06-27T22:50:45.223Z,21.77
2019-06-27T22:53:20.908Z,21.69
2019-06-27T22:55:52.047Z,21.58
2019-06-27T22:58:22.630Z,21.56
2019-06-27T23:00:53.184Z,21.46
2019-06-27T23:03:23.764Z,21.50
2019-06-27T23:05:54.347Z,21.40
2019-06-27T23:08:25.020Z,21.42
2019-06-27T23:10:55.571Z,21.27
2019-06-27T23:13:26.366Z,21.20
2019-06-27T23:15:56.921Z,21.23
2019-06-27T23:18:30.025Z,21.14
2019-06-27T23:21:00.822Z,21.18
2019-06-27T23:23:32.545Z,21.14
2019-06-27T23:26:03.110Z,21.07
2019-06-27T23:28:34.072Z,20.98
2019-06-27T23:31:04.748Z,20.97
2019-06-27T23:33:35.320Z,20.80
2019-06-27T23:36:05.928Z,20.80
2019-06-27T23:38:37.832Z,20.84
2019-06-27T23:41:08.376Z,20.78
2019-06-27T23:43:41.508Z,20.75
2019-06-27T23:46:31.009Z,20.81
2019-06-27T23:49:01.860Z,20.57
2019-06-27T23:51:32.418Z,20.42
2019-06-27T23:54:03.055Z,20.28
2019-06-27T23:56:33.797Z,20.22
2019-06-27T23:59:05.867Z,20.31
